createdAt,value
2023-01-23T00:02:03.900Z,8.13
2023-01-23T00:04:30.356Z,13.93
2023-01-23T00:06:56.891Z,12.75
2023-01-23T00:09:23.390Z,16.88
2023-01-23T00:11:49.964Z,12.50
2023-01-23T00:14:16.404Z,15.45
2023-01-23T00:16:43.020Z,15.27
2023-01-23T00:19:10.590Z,14.43
2023-01-23T00:21:37.259Z,16.67
2023-01-23T00:24:04.198Z,18.13
2023-01-23T00:26:33.160Z,14.65
2023-01-23T00:29:00.031Z,15.95
2023-01-23T00:31:29.854Z,11.48
2023-01-23T00:33:59.398Z,15.30
2023-01-23T00:36:30.141Z,15.68
2023-01-23T00:38:56.697Z,11.18
2023-01-23T00:41:23.970Z,14.73
2023-01-23T00:43:52.203Z,14.10
2023-01-23T00:46:20.252Z,9.98
2023-01-23T00:48:47.196Z,10.35
2023-01-23T00:51:14.092Z,9.88
2023-01-23T00:53:40.600Z,10.75
2023-01-23T00:56:07.467Z,16.83
2023-01-23T00:58:33.898Z,10.80
2023-01-23T01:01:00.592Z,15.63
2023-01-23T01:03:27.120Z,11.80
2023-01-23T01:05:53.714Z,11.05
2023-01-23T01:08:20.283Z,10.20
2023-01-23T01:10:46.865Z,12.45
2023-01-23T01:13:13.474Z,13.30
2023-01-23T01:15:40.478Z,13.48
2023-01-23T01:18:07.171Z,10.55
2023-01-23T01:20:33.843Z,11.40
2023-01-23T01:23:00.650Z,9.35
2023-01-23T01:25:27.752Z,15.38
2023-01-23T01:27:56.001Z,12.50
2023-01-23T01:30:23.263Z,11.38
2023-01-23T01:32:50.384Z,13.82
2023-01-23T01:35:17.000Z,12.23
2023-01-23T01:37:43.896Z,12.57
2023-01-23T01:40:15.173Z,12.18
2023-01-23T01:42:50.253Z,12.23
2023-01-23T01:45:54.288Z,11.80
2023-01-23T01:48:24.466Z,12.80
2023-01-23T01:50:51.770Z,11.85
2023-01-23T01:53:19.374Z,11.73
2023-01-23T01:55:46.461Z,10.50
2023-01-23T01:58:14.190Z,14.07
2023-01-23T02:00:41.242Z,10.00
2023-01-23T02:03:08.270Z,10.93
2023-01-23T02:05:37.829Z,11.20
2023-01-23T02:08:27.783Z,10.20
2023-01-23T02:10:54.756Z,10.80
2023-01-23T02:13:30.454Z,10.43
2023-01-23T02:15:59.969Z,13.20
2023-01-23T02:18:28.967Z,13.27
2023-01-23T02:20:58.154Z,13.70
2023-01-23T02:23:40.946Z,11.40
2023-01-23T02:26:11.489Z,11.27
2023-01-23T02:28:41.781Z,13.27
2023-01-23T02:31:10.596Z,9.50
2023-01-23T02:33:37.046Z,9.40
2023-01-23T02:36:09.172Z,10.90
2023-01-23T02:38:42.784Z,10.85
2023-01-23T02:41:12.497Z,12.35
2023-01-23T02:43:39.745Z,12.32
2023-01-23T02:46:09.892Z,13.55
2023-01-23T02:48:40.022Z,11.60
2023-01-23T02:51:07.663Z,9.65
2023-01-23T02:53:34.326Z,17.00
2023-01-23T02:56:00.998Z,14.77
2023-01-23T02:58:46.279Z,13.45
2023-01-23T03:01:13.223Z,10.25
2023-01-23T03:03:42.459Z,12.75
2023-01-23T03:06:09.749Z,17.42
2023-01-23T03:08:42.261Z,15.02
2023-01-23T03:11:08.723Z,11.80
2023-01-23T03:13:35.225Z,13.35
2023-01-23T03:16:02.145Z,14.65
2023-01-23T03:18:30.896Z,13.55
2023-01-23T03:21:02.563Z,13.68
2023-01-23T03:23:29.171Z,12.82
2023-01-23T03:25:58.588Z,15.50
2023-01-23T03:28:48.047Z,10.15
2023-01-23T03:31:15.849Z,12.05
2023-01-23T03:33:44.197Z,13.18
2023-01-23T03:36:13.152Z,11.50
2023-01-23T03:39:00.746Z,11.02
2023-01-23T03:41:27.823Z,15.63
2023-01-23T03:43:54.549Z,12.07
2023-01-23T03:46:21.288Z,13.00
2023-01-23T03:48:47.777Z,12.93
2023-01-23T03:51:14.442Z,13.52
2023-01-23T03:53:41.250Z,15.00
2023-01-23T03:56:08.331Z,15.82
2023-01-23T03:58:35.021Z,14.98
2023-01-23T04:01:03.662Z,14.98
2023-01-23T04:05:58.160Z,12.43
2023-01-23T04:08:24.843Z,13.35
2023-01-23T04:10:51.665Z,17.63
2023-01-23T04:13:18.150Z,12.05
2023-01-23T04:15:47.607Z,13.63
2023-01-23T04:18:14.081Z,12.25
2023-01-23T04:20:40.631Z,12.63
2023-01-23T04:23:07.295Z,13.15
2023-01-23T04:25:33.846Z,17.77
2023-01-23T04:28:00.371Z,15.15
2023-01-23T04:30:27.082Z,13.55
2023-01-23T04:32:53.642Z,13.07
2023-01-23T04:35:20.164Z,13.73
2023-01-23T04:37:46.849Z,16.15
2023-01-23T04:40:13.749Z,14.70
2023-01-23T04:42:41.240Z,14.55
2023-01-23T04:45:09.065Z,11.77
2023-01-23T04:47:36.117Z,12.02
2023-01-23T04:50:03.305Z,19.67
2023-01-23T04:52:29.765Z,12.95
2023-01-23T04:54:56.755Z,16.10
2023-01-23T04:57:23.650Z,16.65
2023-01-23T04:59:50.444Z,14.63
2023-01-23T05:02:17.521Z,14.57
2023-01-23T05:04:44.974Z,14.25
2023-01-23T05:07:12.599Z,15.05
2023-01-23T05:09:41.321Z,14.20
2023-01-23T05:12:08.469Z,12.07
2023-01-23T05:14:35.009Z,11.65
2023-01-23T05:17:01.646Z,13.93
2023-01-23T05:19:28.140Z,20.02
2023-01-23T05:21:54.609Z,20.60
2023-01-23T05:24:21.545Z,15.38
2023-01-23T05:26:48.062Z,13.70
2023-01-23T05:29:15.064Z,14.88
2023-01-23T05:31:41.682Z,14.25
2023-01-23T05:34:08.211Z,14.15
2023-01-23T05:36:34.897Z,16.52
2023-01-23T05:39:01.471Z,19.63
2023-01-23T05:41:28.128Z,16.55
2023-01-23T05:43:54.613Z,17.13
2023-01-23T05:46:21.301Z,13.93
2023-01-23T05:48:51.748Z,16.65
2023-01-23T05:51:19.092Z,11.38
2023-01-23T05:53:45.899Z,19.10
2023-01-23T05:56:12.859Z,15.23
2023-01-23T05:58:39.484Z,13.65
2023-01-23T06:01:06.120Z,16.60
2023-01-23T06:03:33.569Z,18.83
2023-01-23T06:06:02.234Z,15.80
2023-01-23T06:10:58.905Z,12.23
2023-01-23T06:13:28.827Z,14.45
2023-01-23T06:15:56.328Z,16.83
2023-01-23T06:18:23.670Z,13.13
2023-01-23T06:20:50.604Z,15.55
2023-01-23T06:23:17.775Z,20.10
2023-01-23T06:25:44.898Z,13.38
2023-01-23T06:28:12.016Z,15.68
2023-01-23T06:30:39.292Z,16.30
2023-01-23T06:33:06.276Z,20.02
2023-01-23T06:35:33.379Z,15.85
2023-01-23T06:38:00.561Z,19.02
2023-01-23T06:40:27.409Z,18.85
2023-01-23T06:42:57.611Z,19.23
2023-01-23T06:45:26.136Z,16.90
2023-01-23T06:47:53.729Z,21.75
2023-01-23T06:50:20.873Z,20.85
2023-01-23T06:52:47.884Z,16.65
2023-01-23T06:55:14.859Z,17.73
2023-01-23T06:57:41.775Z,17.40
2023-01-23T07:00:10.198Z,21.60
2023-01-23T07:02:38.671Z,15.95
2023-01-23T07:05:05.999Z,20.02
2023-01-23T07:07:32.816Z,20.48
2023-01-23T07:10:01.388Z,17.85
2023-01-23T07:14:55.251Z,15.68
2023-01-23T07:17:22.177Z,17.75
2023-01-23T07:19:49.046Z,16.95
2023-01-23T07:22:20.937Z,14.05
2023-01-23T07:24:48.058Z,22.70
2023-01-23T07:27:15.846Z,19.80
2023-01-23T07:29:43.590Z,17.27
2023-01-23T07:32:11.273Z,20.48
2023-01-23T07:34:38.305Z,22.27
2023-01-23T07:37:05.883Z,22.63
2023-01-23T07:39:33.833Z,16.92
2023-01-23T07:42:04.029Z,19.63
2023-01-23T07:44:30.947Z,20.77
2023-01-23T07:46:59.655Z,23.60
2023-01-23T07:49:26.605Z,23.33
2023-01-23T07:51:53.233Z,18.95
2023-01-23T07:54:20.637Z,18.95
2023-01-23T07:56:51.331Z,16.63
2023-01-23T07:59:19.429Z,20.48
2023-01-23T08:01:46.370Z,18.73
2023-01-23T08:04:13.476Z,21.67
2023-01-23T08:06:41.089Z,21.20
2023-01-23T08:09:08.233Z,18.83
2023-01-23T08:11:35.104Z,22.52
2023-01-23T08:14:01.955Z,21.83
2023-01-23T08:16:29.327Z,18.83
2023-01-23T08:18:56.241Z,19.35
2023-01-23T08:21:25.118Z,20.02
2023-01-23T08:23:52.546Z,19.20
2023-01-23T08:26:19.534Z,20.85
2023-01-23T08:28:46.391Z,20.15
2023-01-23T08:31:14.422Z,18.20
2023-01-23T08:33:41.503Z,22.60
2023-01-23T08:36:11.945Z,19.30
2023-01-23T08:38:39.562Z,19.08
2023-01-23T08:41:06.860Z,21.02
2023-01-23T08:43:33.610Z,24.75
2023-01-23T08:46:01.151Z,22.55
2023-01-23T08:48:28.626Z,19.35
2023-01-23T08:51:02.842Z,20.60
2023-01-23T08:53:33.310Z,19.48
2023-01-23T08:56:01.553Z,21.13
2023-01-23T08:58:28.661Z,21.95
2023-01-23T09:00:55.580Z,20.48
2023-01-23T09:03:22.848Z,18.55
2023-01-23T09:05:49.930Z,18.55
2023-01-23T09:08:16.948Z,18.42
2023-01-23T09:10:44.730Z,22.63
2023-01-23T09:13:11.983Z,22.70
2023-01-23T09:15:39.972Z,20.10
2023-01-23T09:18:07.212Z,20.73
2023-01-23T09:20:34.526Z,20.80
2023-01-23T09:23:01.701Z,18.77
2023-01-23T09:25:30.776Z,24.27
2023-01-23T09:27:57.669Z,21.52
2023-01-23T09:30:24.856Z,18.33
2023-01-23T09:32:53.052Z,20.80
2023-01-23T09:35:19.895Z,20.35
2023-01-23T09:38:01.793Z,20.63
2023-01-23T09:40:32.358Z,20.25
2023-01-23T09:43:11.562Z,22.00
2023-01-23T09:45:40.887Z,19.60
2023-01-23T09:48:19.872Z,20.95
2023-01-23T09:51:20.487Z,19.75
2023-01-23T09:53:47.910Z,19.58
2023-01-23T09:56:31.336Z,20.67
2023-01-23T09:59:15.652Z,24.77
2023-01-23T10:01:42.469Z,24.13
2023-01-23T10:04:12.785Z,23.52
2023-01-23T10:06:55.432Z,20.92
2023-01-23T10:09:37.339Z,19.52
2023-01-23T10:12:30.400Z,21.25
2023-01-23T10:15:39.474Z,19.65
2023-01-23T10:18:17.836Z,19.98
2023-01-23T10:21:03.265Z,21.10
2023-01-23T10:23:35.797Z,20.23
2023-01-23T10:26:04.097Z,17.48
2023-01-23T10:28:39.025Z,21.77
2023-01-23T10:31:12.896Z,21.67
2023-01-23T10:34:22.675Z,22.02
2023-01-23T10:37:07.871Z,22.33
2023-01-23T10:40:01.210Z,20.92
2023-01-23T10:42:32.776Z,17.45
2023-01-23T10:44:59.947Z,17.63
2023-01-23T10:47:37.126Z,21.55
2023-01-23T10:50:06.511Z,16.80
2023-01-23T10:52:43.345Z,24.95
2023-01-23T10:55:19.804Z,21.70
2023-01-23T10:57:49.551Z,18.15
2023-01-23T11:00:30.611Z,19.75
2023-01-23T11:03:20.186Z,17.42
2023-01-23T11:05:56.936Z,22.10
2023-01-23T11:08:29.633Z,18.52
2023-01-23T11:11:14.562Z,23.73
2023-01-23T11:13:47.543Z,19.85
2023-01-23T11:16:17.544Z,19.25
2023-01-23T11:18:53.423Z,17.88
2023-01-23T11:21:22.164Z,23.48
2023-01-23T11:23:49.105Z,17.23
2023-01-23T11:26:33.667Z,15.23
2023-01-23T11:29:00.872Z,16.55
2023-01-23T11:31:29.529Z,14.13
2023-01-23T11:34:05.407Z,17.00
2023-01-23T11:36:50.147Z,18.63
2023-01-23T11:39:38.941Z,19.58
2023-01-23T11:42:08.696Z,14.75
2023-01-23T11:44:45.663Z,13.52
2023-01-23T11:47:56.569Z,17.58
2023-01-23T11:50:56.253Z,13.23
2023-01-23T11:53:42.929Z,20.05
2023-01-23T11:56:21.261Z,13.80
2023-01-23T11:59:00.597Z,16.23
2023-01-23T12:02:05.324Z,18.38
2023-01-23T12:04:39.999Z,22.40
2023-01-23T12:07:22.032Z,13.52
2023-01-23T12:10:07.733Z,14.02
2023-01-23T12:13:05.735Z,14.85
2023-01-23T12:16:17.524Z,14.15
2023-01-23T12:18:48.502Z,15.88
2023-01-23T12:21:18.420Z,13.48
2023-01-23T12:24:29.465Z,16.95
2023-01-23T12:27:29.199Z,13.85
2023-01-23T12:30:14.575Z,13.93
2023-01-23T12:33:01.211Z,13.23
2023-01-23T12:35:51.213Z,12.73
2023-01-23T12:38:30.655Z,15.50
2023-01-23T12:41:17.198Z,14.75
2023-01-23T12:43:57.420Z,13.10
2023-01-23T12:46:34.422Z,12.68
2023-01-23T12:49:16.710Z,11.50
2023-01-23T12:51:48.179Z,11.88
2023-01-23T12:54:22.825Z,12.15
2023-01-23T12:59:27.694Z,14.13
2023-01-23T13:02:19.185Z,14.02
2023-01-23T13:05:24.249Z,15.77
2023-01-23T13:07:57.055Z,13.77
2023-01-23T13:10:27.092Z,16.35
2023-01-23T13:12:56.355Z,14.90
2023-01-23T13:15:40.278Z,11.90
2023-01-23T13:18:23.643Z,15.98
2023-01-23T13:21:31.444Z,14.30
2023-01-23T13:24:40.843Z,15.05
2023-01-23T13:27:32.313Z,11.20
2023-01-23T13:29:59.746Z,16.60
2023-01-23T13:32:29.742Z,12.10
2023-01-23T13:34:59.229Z,12.95
2023-01-23T13:37:29.192Z,15.43
2023-01-23T13:40:30.049Z,12.75
2023-01-23T13:42:57.167Z,11.25
2023-01-23T13:45:30.150Z,14.13
2023-01-23T14:25:38.638Z,7.80
2023-01-23T14:28:06.593Z,4.88
2023-01-23T14:30:34.990Z,9.43
2023-01-23T14:33:02.161Z,6.85
2023-01-23T14:35:32.126Z,6.93
2023-01-23T14:38:04.775Z,9.45
2023-01-23T14:40:46.703Z,7.60
2023-01-23T14:43:23.511Z,6.65
2023-01-23T14:45:58.978Z,6.72
2023-01-23T14:48:26.338Z,7.88
2023-01-23T14:51:10.588Z,6.07
2023-01-23T14:53:41.322Z,6.50
2023-01-23T14:56:11.231Z,7.65
2023-01-23T14:58:38.855Z,6.43
2023-01-23T15:01:05.781Z,7.85
2023-01-23T15:03:41.016Z,6.50
2023-01-23T15:06:12.851Z,12.07
2023-01-23T15:08:43.939Z,6.50
2023-01-23T15:11:13.289Z,7.63
2023-01-23T15:13:50.434Z,5.45
2023-01-23T15:16:34.288Z,4.85
2023-01-23T15:19:20.786Z,5.68
2023-01-23T15:21:50.412Z,5.47
2023-01-23T15:24:26.143Z,6.57
2023-01-23T15:26:57.176Z,7.57
2023-01-23T15:29:24.096Z,7.88
2023-01-23T15:31:55.218Z,7.10
2023-01-23T15:34:26.610Z,7.00
2023-01-23T15:37:11.918Z,7.63
2023-01-23T15:39:46.332Z,8.60
2023-01-23T15:42:13.516Z,7.75
2023-01-23T15:44:42.110Z,9.40
2023-01-23T15:49:38.679Z,7.25
2023-01-23T15:52:48.395Z,6.85
2023-01-23T15:55:15.959Z,10.07
2023-01-23T15:57:43.838Z,7.60
2023-01-23T16:00:19.415Z,7.50
2023-01-23T16:02:55.774Z,9.50
2023-01-23T16:05:26.417Z,8.52
2023-01-23T16:07:55.375Z,7.88
2023-01-23T16:10:28.775Z,7.25
2023-01-23T16:12:58.559Z,7.38
2023-01-23T16:15:29.598Z,7.20
2023-01-23T16:18:00.060Z,8.60
2023-01-23T16:20:30.553Z,6.68
2023-01-23T16:23:08.501Z,9.88
2023-01-23T16:25:45.078Z,7.63
2023-01-23T16:28:21.596Z,9.30
2023-01-23T16:30:49.862Z,8.23
2023-01-23T16:33:16.935Z,9.38
2023-01-23T16:35:44.969Z,8.05
2023-01-23T16:38:24.454Z,10.80
2023-01-23T16:40:53.465Z,8.73
2023-01-23T16:43:21.972Z,8.10
2023-01-23T16:48:26.457Z,7.57
2023-01-23T16:51:00.369Z,6.65
2023-01-23T16:53:36.922Z,7.72
2023-01-23T16:56:05.673Z,9.95
2023-01-23T16:58:39.308Z,8.70
2023-01-23T17:01:16.886Z,10.15
2023-01-23T17:03:44.794Z,8.00
2023-01-23T17:06:14.762Z,10.25
2023-01-23T17:08:42.011Z,9.75
2023-01-23T17:11:14.801Z,9.93
2023-01-23T17:13:41.518Z,10.15
2023-01-23T17:16:21.855Z,10.13
2023-01-23T17:18:55.901Z,9.32
2023-01-23T17:23:51.856Z,9.48
2023-01-23T17:26:21.895Z,8.55
2023-01-23T17:28:49.060Z,10.40
2023-01-23T17:31:28.682Z,11.27
2023-01-23T17:33:55.852Z,12.88
2023-01-23T17:36:23.080Z,10.75
2023-01-23T17:38:50.404Z,9.38
2023-01-23T17:41:18.375Z,9.95
2023-01-23T17:43:48.654Z,11.10
2023-01-23T17:46:26.353Z,12.30
2023-01-23T17:48:54.497Z,11.05
2023-01-23T17:51:23.327Z,11.27
2023-01-23T17:53:51.064Z,10.07
2023-01-23T17:56:18.535Z,9.48
2023-01-23T17:58:45.714Z,12.52
2023-01-23T18:01:22.880Z,12.45
2023-01-23T18:03:51.694Z,12.25
2023-01-23T18:06:19.639Z,11.63
2023-01-23T18:08:49.494Z,11.35
2023-01-23T18:11:23.233Z,11.48
2023-01-23T18:14:22.603Z,12.73
2023-01-23T18:16:50.351Z,13.32
2023-01-23T18:19:36.331Z,11.65
2023-01-23T18:22:03.726Z,13.07
2023-01-23T18:24:32.615Z,10.95
2023-01-23T18:27:00.905Z,13.23
2023-01-23T18:29:33.583Z,14.98
2023-01-23T18:32:26.587Z,13.13
2023-01-23T18:38:14.365Z,12.75
2023-01-23T18:40:56.253Z,15.30
2023-01-23T18:43:34.902Z,14.18
2023-01-23T18:46:02.213Z,14.63
2023-01-23T18:48:29.715Z,13.65
2023-01-23T18:51:19.387Z,13.98
2023-01-23T18:54:02.484Z,12.30
2023-01-23T18:56:42.979Z,13.02
2023-01-23T18:59:39.112Z,15.73
2023-01-23T19:02:46.839Z,16.02
2023-01-23T19:05:17.010Z,17.23
2023-01-23T19:07:45.779Z,15.57
2023-01-23T19:10:17.595Z,15.90
2023-01-23T19:13:08.217Z,15.52
2023-01-23T19:15:50.967Z,14.07
2023-01-23T19:18:53.338Z,16.80
2023-01-23T19:21:25.252Z,13.40
2023-01-23T19:24:06.937Z,15.82
2023-01-23T19:26:40.453Z,14.38
2023-01-23T19:29:21.046Z,13.98
2023-01-23T19:32:06.670Z,15.52
2023-01-23T19:34:41.846Z,15.77
2023-01-23T19:37:09.347Z,15.27
2023-01-23T19:39:36.127Z,16.33
2023-01-23T19:42:03.219Z,17.90
2023-01-23T19:44:31.085Z,14.20
2023-01-23T19:46:58.144Z,16.00
2023-01-23T19:49:25.386Z,16.58
2023-01-23T19:51:52.394Z,19.05
2023-01-23T19:54:19.394Z,15.13
2023-01-23T19:56:46.221Z,16.30
2023-01-23T19:59:13.019Z,15.90
2023-01-23T20:01:43.641Z,14.80
2023-01-23T20:04:20.746Z,15.75
2023-01-23T20:06:52.288Z,15.15
2023-01-23T20:09:19.621Z,12.73
2023-01-23T20:11:47.299Z,15.05
2023-01-23T20:14:14.239Z,15.43
2023-01-23T20:16:43.353Z,15.57
2023-01-23T20:19:15.007Z,18.02
2023-01-23T20:21:42.651Z,15.32
2023-01-23T20:24:09.159Z,16.65
2023-01-23T20:26:36.298Z,17.15
2023-01-23T20:29:04.220Z,15.95
2023-01-23T20:31:31.676Z,15.98
2023-01-23T20:33:58.307Z,15.32
2023-01-23T20:36:24.913Z,15.60
2023-01-23T20:38:51.410Z,16.83
2023-01-23T20:41:19.987Z,15.80
2023-01-23T20:43:46.988Z,12.55
2023-01-23T20:46:15.595Z,15.55
2023-01-23T20:51:15.435Z,13.52
2023-01-23T20:53:42.425Z,15.50
2023-01-23T20:56:17.619Z,14.73
2023-01-23T20:59:06.218Z,15.90
2023-01-23T21:01:54.108Z,18.02
2023-01-23T21:04:22.189Z,15.55
2023-01-23T21:06:48.900Z,15.18
2023-01-23T21:09:16.361Z,13.73
2023-01-23T21:11:42.981Z,14.75
2023-01-23T21:14:09.736Z,14.65
2023-01-23T21:16:36.886Z,13.55
2023-01-23T21:19:04.089Z,14.75
2023-01-23T21:21:31.004Z,15.30
2023-01-23T21:23:58.126Z,15.73
2023-01-23T21:26:26.783Z,16.17
2023-01-23T21:31:23.045Z,15.35
2023-01-23T21:33:50.080Z,17.40
2023-01-23T21:36:19.643Z,16.55
2023-01-23T21:38:46.711Z,13.70
2023-01-23T21:41:13.614Z,13.77
2023-01-23T21:43:40.336Z,15.10
2023-01-23T21:46:07.771Z,15.13
2023-01-23T21:48:35.186Z,14.35
2023-01-23T21:51:12.480Z,19.48
2023-01-23T21:53:41.111Z,19.05
2023-01-23T21:58:34.996Z,14.25
2023-01-23T22:01:23.551Z,16.73
2023-01-23T22:03:50.589Z,16.15
2023-01-23T22:06:17.335Z,16.52
2023-01-23T22:08:44.467Z,18.40
2023-01-23T22:11:11.362Z,18.45
2023-01-23T22:13:37.999Z,18.30
2023-01-23T22:16:05.477Z,18.75
2023-01-23T22:18:33.449Z,15.80
2023-01-23T22:21:02.164Z,15.75
2023-01-23T22:23:29.269Z,15.68
2023-01-23T22:25:57.777Z,16.92
2023-01-23T22:28:24.261Z,16.08
2023-01-23T22:30:50.722Z,16.55
2023-01-23T22:33:17.788Z,19.13
2023-01-23T22:35:45.112Z,18.70
2023-01-23T22:38:14.809Z,16.08
2023-01-23T22:40:41.561Z,19.27
2023-01-23T22:43:09.134Z,14.95
2023-01-23T22:45:36.953Z,15.63
2023-01-23T22:48:03.535Z,14.10
2023-01-23T22:50:30.041Z,15.15
2023-01-23T22:52:56.543Z,17.73
2023-01-23T22:55:23.646Z,14.90
2023-01-23T22:57:52.696Z,15.60
2023-01-23T23:00:19.472Z,15.15
2023-01-23T23:02:46.182Z,16.77
2023-01-23T23:05:12.879Z,15.73
2023-01-23T23:07:39.428Z,15.60
2023-01-23T23:10:08.118Z,14.50
2023-01-23T23:12:35.043Z,18.38
2023-01-23T23:15:02.809Z,14.13
2023-01-23T23:17:29.749Z,17.15
2023-01-23T23:19:56.354Z,15.32
2023-01-23T23:22:23.140Z,21.02
2023-01-23T23:24:49.672Z,16.20
2023-01-23T23:27:16.100Z,16.75
2023-01-23T23:29:42.734Z,18.58
2023-01-23T23:32:09.419Z,15.30
2023-01-23T23:34:37.257Z,12.52
2023-01-23T23:37:03.954Z,14.20
2023-01-23T23:39:30.738Z,18.95
2023-01-23T23:41:57.289Z,17.08
2023-01-23T23:44:26.382Z,14.77
2023-01-23T23:46:53.160Z,14.48
2023-01-23T23:49:19.686Z,17.08
2023-01-23T23:51:46.153Z,18.40
2023-01-23T23:54:12.802Z,17.35
2023-01-23T23:56:39.554Z,16.73
2023-01-23T23:59:06.024Z,17.90
